Skip Navigation Links
NOAA logo - Click to go to the NOAA homepage
NOAA's National Weather Service
Alaska Aviation Weather Unit
  NWS logo - Click to go to the NWS homepage
Left Navbar Graphic     02 AKDT = 10 GMT

   
NOAA is celebrating 200 years of science, service, and stewardship. Visit the NOAA 200th celebration Web site to learn more.
USA.gov is the U.S. Government's official Web portal to all Federal, state and local government Web resources and services.
Facebook
NWS on Facebook

AAWU Home :: Display TAF Add Bookmark
METAR PAFE 270416Z AUTO 12006KT 10SM CLR 05/M04 A2959 RMK AO1=

METAR PAFE 270436Z AUTO 00000KT 10SM BKN060 04/M04 A2959 RMK AO1=

METAR PAFE 270456Z AUTO 03006KT 10SM BKN060 05/M05 A2958 RMK AO1=

METAR PAFE 270516Z AUTO 05008KT 10SM FEW060 05/M04 A2958 RMK AO1=

METAR PAFE 270536Z AUTO 08007KT 10SM FEW060 05/M05 A2959 RMK AO1=

METAR PAFE 270556Z AUTO 12003KT 10SM BKN060 04/M04 A2959 RMK AO1 10070
     20040 52003=

METAR PAFE 270616Z AUTO 10003KT 10SM OVC060 04/M04 A2959 RMK AO1=

METAR PAFE 270636Z AUTO 00000KT 10SM OVC060 04/M04 A2960 RMK AO1=

METAR PAFE 270656Z AUTO 00000KT 10SM OVC060 04/M04 A2960 RMK AO1=

METAR PAFE 270716Z AUTO 00000KT 10SM OVC060 03/M04 A2960 RMK AO1=

METAR PAFE 270736Z AUTO 00000KT 10SM BKN047 OVC060 03/M04 A2961 RMK
     AO1=

METAR PAFE 270756Z AUTO 06005KT 10SM BKN035 OVC045 02/M04 A2961 RMK
    AO1=

METAR PAFE 270816Z AUTO 04003KT 10SM SCT033 OVC042 02/M03 A2960 RMK
     AO1=

METAR PAFE 270836Z AUTO 06005KT 10SM OVC041 03/M03 A2961 RMK AO1=

METAR PAFE 270856Z AUTO 06005KT 10SM OVC041 03/M03 A2960 RMK AO1
     52003=

METAR PAFE 270916Z AUTO 00000KT 10SM BKN033 OVC041 03/M03 A2961 RMK
     AO1=

METAR PAFE 270936Z AUTO 11006KT 10SM OVC031 04/M03 A2961 RMK AO1=

METAR PAFE 270956Z AUTO 10004KT 10SM OVC029 04/M02 A2961 RMK AO1=

METAR PAFE 271016Z AUTO 09003KT 10SM OVC027 03/M02 A2961 RMK AO1
     P0001=


NOAA's National Weather Service
Alaska Aviation Weather Unit
6930 Sand Lake Road
Anchorage, AK 99502-1845
Disclaimer
Credits
Glossary
Privacy Policy
About Us
Career Opportunities
Contact AAWU Internet Services Site last modified: April, 17th 2012